Parawa Second Valley Forest, Australia
Current Conditions -  °F | °C
As of 6:00 AM on Wednesday 22 Oct 2014 (Local Time) from YPAD Reporting Station
Clear Clear  
Wind Chill: 68°   Ceiling: Unl
Heat Index: 68°   Visibility: 6mi
Dew Point: 52°   Wind: 6mph
Humidity: 56%   Direction: 320°NW
Pressure: 29.97"   Gusts: NA
Location:  35.57°S, 138.24°E
Report Text: YPAD 212000Z 32005KT CAVOK 20/11 Q1015 FM2000 21010KT CAVOK
Loading
Personal Weather Stations






























Interactive Weather Map
Tropical Storm Tracking
New forecast layout! Learn more

10-Day Weather Forecast

Advertisements
Track Severe Weather on mobile